sensor_id;sensor_type;location;lat;lon;timestamp;P1;durP1;ratioP1;P2;durP2;ratioP2
23384;SDS011;11865;45.394;10.978;2022-12-18T00:01:20;38.45;;;22.85;;
23384;SDS011;11865;45.394;10.978;2022-12-18T00:03:50;40.50;;;21.65;;
23384;SDS011;11865;45.394;10.978;2022-12-18T00:06:19;34.55;;;20.75;;
23384;SDS011;11865;45.394;10.978;2022-12-18T00:08:47;30.40;;;19.85;;
23384;SDS011;11865;45.394;10.978;2022-12-18T00:11:16;33.47;;;20.30;;
23384;SDS011;11865;45.394;10.978;2022-12-18T00:13:45;32.00;;;19.63;;
23384;SDS011;11865;45.394;10.978;2022-12-18T00:16:15;31.75;;;18.98;;
23384;SDS011;11865;45.394;10.978;2022-12-18T00:18:47;29.80;;;18.75;;
23384;SDS011;11865;45.394;10.978;2022-12-18T00:21:16;35.20;;;19.70;;
23384;SDS011;11865;45.394;10.978;2022-12-18T00:23:45;35.88;;;20.73;;
23384;SDS011;11865;45.394;10.978;2022-12-18T00:26:15;32.70;;;20.08;;
23384;SDS011;11865;45.394;10.978;2022-12-18T00:28:46;35.05;;;20.20;;
23384;SDS011;11865;45.394;10.978;2022-12-18T00:31:18;32.08;;;19.80;;
23384;SDS011;11865;45.394;10.978;2022-12-18T00:33:48;33.33;;;18.88;;
23384;SDS011;11865;45.394;10.978;2022-12-18T00:36:21;37.33;;;20.33;;
23384;SDS011;11865;45.394;10.978;2022-12-18T00:38:52;34.80;;;20.73;;
23384;SDS011;11865;45.394;10.978;2022-12-18T00:41:20;40.35;;;20.85;;
23384;SDS011;11865;45.394;10.978;2022-12-18T00:44:07;35.72;;;19.90;;
23384;SDS011;11865;45.394;10.978;2022-12-18T00:46:36;31.25;;;18.70;;
23384;SDS011;11865;45.394;10.978;2022-12-18T00:49:04;37.15;;;19.92;;
23384;SDS011;11865;45.394;10.978;2022-12-18T00:51:32;35.75;;;20.55;;
23384;SDS011;11865;45.394;10.978;2022-12-18T00:53:59;31.27;;;19.25;;
23384;SDS011;11865;45.394;10.978;2022-12-18T00:56:27;31.05;;;19.75;;
23384;SDS011;11865;45.394;10.978;2022-12-18T00:58:55;29.35;;;17.98;;
23384;SDS011;11865;45.394;10.978;2022-12-18T01:01:22;29.73;;;18.25;;
23384;SDS011;11865;45.394;10.978;2022-12-18T01:03:50;28.52;;;17.58;;
23384;SDS011;11865;45.394;10.978;2022-12-18T01:06:19;25.60;;;17.48;;
23384;SDS011;11865;45.394;10.978;2022-12-18T01:08:47;28.90;;;18.60;;
23384;SDS011;11865;45.394;10.978;2022-12-18T01:11:20;30.55;;;18.65;;
23384;SDS011;11865;45.394;10.978;2022-12-18T01:13:48;28.25;;;17.85;;
23384;SDS011;11865;45.394;10.978;2022-12-18T01:16:16;30.23;;;17.90;;
23384;SDS011;11865;45.394;10.978;2022-12-18T01:18:44;27.10;;;17.77;;
23384;SDS011;11865;45.394;10.978;2022-12-18T01:21:14;28.15;;;18.48;;
23384;SDS011;11865;45.394;10.978;2022-12-18T01:23:42;31.75;;;18.60;;
23384;SDS011;11865;45.394;10.978;2022-12-18T01:26:12;29.88;;;18.92;;
23384;SDS011;11865;45.394;10.978;2022-12-18T01:28:43;23.40;;;15.80;;
23384;SDS011;11865;45.394;10.978;2022-12-18T01:31:12;26.58;;;16.52;;
23384;SDS011;11865;45.394;10.978;2022-12-18T01:33:46;27.38;;;15.52;;
23384;SDS011;11865;45.394;10.978;2022-12-18T01:38:52;28.90;;;16.88;;
23384;SDS011;11865;45.394;10.978;2022-12-18T01:41:21;21.63;;;14.60;;
23384;SDS011;11865;45.394;10.978;2022-12-18T01:46:24;23.25;;;14.27;;
23384;SDS011;11865;45.394;10.978;2022-12-18T01:48:57;23.80;;;14.87;;
23384;SDS011;11865;45.394;10.978;2022-12-18T01:51:29;22.27;;;15.20;;
23384;SDS011;11865;45.394;10.978;2022-12-18T01:53:57;22.80;;;14.67;;
23384;SDS011;11865;45.394;10.978;2022-12-18T01:56:26;22.40;;;14.25;;
23384;SDS011;11865;45.394;10.978;2022-12-18T01:59:04;23.38;;;15.75;;
23384;SDS011;11865;45.394;10.978;2022-12-18T02:01:36;21.73;;;14.60;;
23384;SDS011;11865;45.394;10.978;2022-12-18T02:04:21;24.45;;;15.77;;
23384;SDS011;11865;45.394;10.978;2022-12-18T02:06:59;26.55;;;15.95;;
23384;SDS011;11865;45.394;10.978;2022-12-18T02:09:33;24.65;;;13.95;;
23384;SDS011;11865;45.394;10.978;2022-12-18T02:12:20;21.20;;;14.00;;
23384;SDS011;11865;45.394;10.978;2022-12-18T02:17:44;26.90;;;16.13;;
23384;SDS011;11865;45.394;10.978;2022-12-18T02:20:34;23.73;;;14.70;;
23384;SDS011;11865;45.394;10.978;2022-12-18T02:26:05;21.83;;;14.13;;
23384;SDS011;11865;45.394;10.978;2022-12-18T02:28:47;23.33;;;14.30;;
23384;SDS011;11865;45.394;10.978;2022-12-18T02:31:40;21.38;;;13.90;;
23384;SDS011;11865;45.394;10.978;2022-12-18T02:34:14;24.30;;;15.23;;
23384;SDS011;11865;45.394;10.978;2022-12-18T02:36:45;16.35;;;11.05;;
23384;SDS011;11865;45.394;10.978;2022-12-18T02:39:15;24.70;;;14.98;;
23384;SDS011;11865;45.394;10.978;2022-12-18T02:41:56;23.42;;;14.68;;
23384;SDS011;11865;45.394;10.978;2022-12-18T02:44:25;24.33;;;15.30;;
23384;SDS011;11865;45.394;10.978;2022-12-18T02:46:53;22.80;;;14.70;;
23384;SDS011;11865;45.394;10.978;2022-12-18T02:49:27;25.13;;;15.05;;
23384;SDS011;11865;45.394;10.978;2022-12-18T02:54:42;22.75;;;15.55;;
23384;SDS011;11865;45.394;10.978;2022-12-18T03:03:03;17.70;;;12.10;;
23384;SDS011;11865;45.394;10.978;2022-12-18T03:05:40;19.05;;;12.02;;
23384;SDS011;11865;45.394;10.978;2022-12-18T03:08:21;17.42;;;11.70;;
23384;SDS011;11865;45.394;10.978;2022-12-18T03:11:02;20.40;;;12.13;;
23384;SDS011;11865;45.394;10.978;2022-12-18T03:13:34;19.60;;;11.27;;
23384;SDS011;11865;45.394;10.978;2022-12-18T03:16:06;19.20;;;10.88;;
23384;SDS011;11865;45.394;10.978;2022-12-18T03:18:38;18.17;;;10.98;;
23384;SDS011;11865;45.394;10.978;2022-12-18T03:21:28;19.92;;;10.43;;
23384;SDS011;11865;45.394;10.978;2022-12-18T03:24:04;16.48;;;9.75;;
23384;SDS011;11865;45.394;10.978;2022-12-18T03:29:08;15.05;;;10.15;;
23384;SDS011;11865;45.394;10.978;2022-12-18T03:31:40;18.00;;;10.50;;
23384;SDS011;11865;45.394;10.978;2022-12-18T03:36:46;17.27;;;9.98;;
23384;SDS011;11865;45.394;10.978;2022-12-18T03:39:14;16.40;;;9.88;;
23384;SDS011;11865;45.394;10.978;2022-12-18T03:41:52;16.08;;;9.80;;
23384;SDS011;11865;45.394;10.978;2022-12-18T03:44:43;17.08;;;10.00;;
23384;SDS011;11865;45.394;10.978;2022-12-18T03:47:29;15.82;;;9.90;;
23384;SDS011;11865;45.394;10.978;2022-12-18T03:55:27;14.32;;;9.07;;
23384;SDS011;11865;45.394;10.978;2022-12-18T03:58:03;14.00;;;9.07;;
23384;SDS011;11865;45.394;10.978;2022-12-18T04:00:49;11.18;;;8.45;;
23384;SDS011;11865;45.394;10.978;2022-12-18T04:03:19;13.68;;;8.70;;
23384;SDS011;11865;45.394;10.978;2022-12-18T04:05:52;12.25;;;8.65;;
23384;SDS011;11865;45.394;10.978;2022-12-18T04:08:22;11.68;;;8.27;;
23384;SDS011;11865;45.394;10.978;2022-12-18T04:11:00;11.65;;;8.70;;
23384;SDS011;11865;45.394;10.978;2022-12-18T04:13:33;22.33;;;9.68;;
23384;SDS011;11865;45.394;10.978;2022-12-18T04:16:07;17.02;;;10.18;;
23384;SDS011;11865;45.394;10.978;2022-12-18T04:18:39;12.07;;;8.60;;
23384;SDS011;11865;45.394;10.978;2022-12-18T04:21:07;12.88;;;9.18;;
23384;SDS011;11865;45.394;10.978;2022-12-18T04:23:36;12.35;;;9.05;;
23384;SDS011;11865;45.394;10.978;2022-12-18T04:26:04;15.35;;;9.02;;
23384;SDS011;11865;45.394;10.978;2022-12-18T04:28:46;14.65;;;9.55;;
23384;SDS011;11865;45.394;10.978;2022-12-18T04:31:14;19.08;;;10.38;;
23384;SDS011;11865;45.394;10.978;2022-12-18T04:33:42;14.18;;;9.45;;
23384;SDS011;11865;45.394;10.978;2022-12-18T04:36:10;14.18;;;8.82;;
23384;SDS011;11865;45.394;10.978;2022-12-18T04:38:40;13.18;;;9.05;;
23384;SDS011;11865;45.394;10.978;2022-12-18T04:41:12;13.38;;;8.82;;
23384;SDS011;11865;45.394;10.978;2022-12-18T04:43:40;13.88;;;9.20;;
23384;SDS011;11865;45.394;10.978;2022-12-18T04:46:08;15.50;;;8.80;;
23384;SDS011;11865;45.394;10.978;2022-12-18T04:48:36;16.13;;;9.32;;
23384;SDS011;11865;45.394;10.978;2022-12-18T04:51:04;19.35;;;10.27;;
23384;SDS011;11865;45.394;10.978;2022-12-18T04:53:32;14.85;;;9.20;;
23384;SDS011;11865;45.394;10.978;2022-12-18T04:56:07;15.13;;;9.77;;
23384;SDS011;11865;45.394;10.978;2022-12-18T04:58:40;15.20;;;9.50;;
23384;SDS011;11865;45.394;10.978;2022-12-18T05:01:09;15.32;;;9.75;;
23384;SDS011;11865;45.394;10.978;2022-12-18T05:03:38;14.73;;;10.52;;
23384;SDS011;11865;45.394;10.978;2022-12-18T05:06:07;14.13;;;8.82;;
23384;SDS011;11865;45.394;10.978;2022-12-18T05:08:35;13.48;;;9.40;;
23384;SDS011;11865;45.394;10.978;2022-12-18T05:11:04;10.70;;;8.38;;
23384;SDS011;11865;45.394;10.978;2022-12-18T05:13:34;16.50;;;9.77;;
23384;SDS011;11865;45.394;10.978;2022-12-18T05:16:02;15.05;;;8.35;;
23384;SDS011;11865;45.394;10.978;2022-12-18T05:18:30;13.07;;;9.25;;
23384;SDS011;11865;45.394;10.978;2022-12-18T05:20:58;11.93;;;8.68;;
23384;SDS011;11865;45.394;10.978;2022-12-18T05:23:26;16.00;;;9.13;;
23384;SDS011;11865;45.394;10.978;2022-12-18T05:25:54;13.40;;;8.88;;
23384;SDS011;11865;45.394;10.978;2022-12-18T05:28:27;12.70;;;8.55;;
23384;SDS011;11865;45.394;10.978;2022-12-18T05:30:56;13.80;;;8.80;;
23384;SDS011;11865;45.394;10.978;2022-12-18T05:33:26;13.60;;;9.02;;
23384;SDS011;11865;45.394;10.978;2022-12-18T05:35:57;13.85;;;9.20;;
23384;SDS011;11865;45.394;10.978;2022-12-18T05:38:27;13.30;;;9.23;;
23384;SDS011;11865;45.394;10.978;2022-12-18T05:40:56;13.63;;;8.13;;
23384;SDS011;11865;45.394;10.978;2022-12-18T05:43:24;12.25;;;8.45;;
23384;SDS011;11865;45.394;10.978;2022-12-18T05:45:53;12.27;;;8.55;;
23384;SDS011;11865;45.394;10.978;2022-12-18T05:48:21;15.52;;;8.48;;
23384;SDS011;11865;45.394;10.978;2022-12-18T05:50:49;16.35;;;9.05;;
23384;SDS011;11865;45.394;10.978;2022-12-18T05:53:18;15.45;;;9.57;;
23384;SDS011;11865;45.394;10.978;2022-12-18T05:55:47;15.90;;;9.82;;
23384;SDS011;11865;45.394;10.978;2022-12-18T05:58:15;13.63;;;8.63;;
23384;SDS011;11865;45.394;10.978;2022-12-18T06:00:43;12.93;;;8.40;;
23384;SDS011;11865;45.394;10.978;2022-12-18T06:03:12;12.68;;;8.40;;
23384;SDS011;11865;45.394;10.978;2022-12-18T06:05:41;16.25;;;9.48;;
23384;SDS011;11865;45.394;10.978;2022-12-18T06:08:11;17.40;;;9.90;;
23384;SDS011;11865;45.394;10.978;2022-12-18T06:10:40;17.30;;;9.10;;
23384;SDS011;11865;45.394;10.978;2022-12-18T06:13:08;13.90;;;8.70;;
23384;SDS011;11865;45.394;10.978;2022-12-18T06:15:36;13.75;;;8.73;;
23384;SDS011;11865;45.394;10.978;2022-12-18T06:18:04;13.02;;;8.88;;
23384;SDS011;11865;45.394;10.978;2022-12-18T06:20:32;12.35;;;8.85;;
23384;SDS011;11865;45.394;10.978;2022-12-18T06:23:00;15.70;;;8.82;;
23384;SDS011;11865;45.394;10.978;2022-12-18T06:25:27;14.45;;;9.45;;
23384;SDS011;11865;45.394;10.978;2022-12-18T06:27:55;11.65;;;8.73;;
23384;SDS011;11865;45.394;10.978;2022-12-18T06:30:22;13.85;;;9.27;;
23384;SDS011;11865;45.394;10.978;2022-12-18T06:32:50;12.48;;;8.20;;
23384;SDS011;11865;45.394;10.978;2022-12-18T06:35:23;14.73;;;8.90;;
23384;SDS011;11865;45.394;10.978;2022-12-18T06:37:50;12.70;;;8.07;;
23384;SDS011;11865;45.394;10.978;2022-12-18T06:40:18;17.33;;;9.63;;
23384;SDS011;11865;45.394;10.978;2022-12-18T06:42:45;16.50;;;9.07;;
23384;SDS011;11865;45.394;10.978;2022-12-18T06:45:16;14.68;;;9.85;;
23384;SDS011;11865;45.394;10.978;2022-12-18T06:47:43;17.45;;;10.05;;
23384;SDS011;11865;45.394;10.978;2022-12-18T06:50:11;19.48;;;10.52;;
23384;SDS011;11865;45.394;10.978;2022-12-18T06:52:39;14.82;;;10.15;;
23384;SDS011;11865;45.394;10.978;2022-12-18T06:55:07;17.83;;;10.68;;
23384;SDS011;11865;45.394;10.978;2022-12-18T06:57:35;16.83;;;11.02;;
23384;SDS011;11865;45.394;10.978;2022-12-18T07:00:04;17.27;;;11.05;;
23384;SDS011;11865;45.394;10.978;2022-12-18T07:02:33;18.10;;;11.65;;
23384;SDS011;11865;45.394;10.978;2022-12-18T07:05:01;19.30;;;11.57;;
23384;SDS011;11865;45.394;10.978;2022-12-18T07:07:36;22.92;;;11.60;;
23384;SDS011;11865;45.394;10.978;2022-12-18T07:10:04;17.33;;;11.30;;
23384;SDS011;11865;45.394;10.978;2022-12-18T07:12:31;17.30;;;10.95;;
23384;SDS011;11865;45.394;10.978;2022-12-18T07:14:59;16.40;;;11.52;;
23384;SDS011;11865;45.394;10.978;2022-12-18T07:17:26;14.10;;;9.80;;
23384;SDS011;11865;45.394;10.978;2022-12-18T07:19:54;18.42;;;11.13;;
23384;SDS011;11865;45.394;10.978;2022-12-18T07:22:21;18.88;;;11.05;;
23384;SDS011;11865;45.394;10.978;2022-12-18T07:24:49;15.35;;;10.43;;
23384;SDS011;11865;45.394;10.978;2022-12-18T07:27:16;17.92;;;10.45;;
23384;SDS011;11865;45.394;10.978;2022-12-18T07:29:44;21.50;;;11.43;;
23384;SDS011;11865;45.394;10.978;2022-12-18T07:32:11;16.85;;;11.15;;
23384;SDS011;11865;45.394;10.978;2022-12-18T07:34:39;15.82;;;10.90;;
23384;SDS011;11865;45.394;10.978;2022-12-18T07:37:07;20.55;;;11.13;;
23384;SDS011;11865;45.394;10.978;2022-12-18T07:39:35;16.67;;;11.30;;
23384;SDS011;11865;45.394;10.978;2022-12-18T07:42:02;20.25;;;11.57;;
23384;SDS011;11865;45.394;10.978;2022-12-18T07:44:48;21.42;;;11.70;;
23384;SDS011;11865;45.394;10.978;2022-12-18T07:47:16;15.60;;;10.60;;
23384;SDS011;11865;45.394;10.978;2022-12-18T07:49:43;14.70;;;10.45;;
23384;SDS011;11865;45.394;10.978;2022-12-18T07:52:11;17.67;;;10.93;;
23384;SDS011;11865;45.394;10.978;2022-12-18T07:54:39;18.40;;;11.40;;
23384;SDS011;11865;45.394;10.978;2022-12-18T07:57:07;14.88;;;10.77;;
23384;SDS011;11865;45.394;10.978;2022-12-18T07:59:55;15.88;;;10.48;;
23384;SDS011;11865;45.394;10.978;2022-12-18T08:02:23;17.35;;;10.30;;
23384;SDS011;11865;45.394;10.978;2022-12-18T08:04:50;16.67;;;10.57;;
23384;SDS011;11865;45.394;10.978;2022-12-18T08:07:18;15.02;;;10.27;;
23384;SDS011;11865;45.394;10.978;2022-12-18T08:09:45;14.93;;;10.93;;
23384;SDS011;11865;45.394;10.978;2022-12-18T08:12:13;16.80;;;10.93;;
23384;SDS011;11865;45.394;10.978;2022-12-18T08:14:40;14.52;;;10.25;;
23384;SDS011;11865;45.394;10.978;2022-12-18T08:17:08;17.35;;;10.95;;
23384;SDS011;11865;45.394;10.978;2022-12-18T08:19:35;16.70;;;10.90;;
23384;SDS011;11865;45.394;10.978;2022-12-18T08:22:03;17.15;;;11.45;;
23384;SDS011;11865;45.394;10.978;2022-12-18T08:24:30;15.93;;;11.05;;
23384;SDS011;11865;45.394;10.978;2022-12-18T08:26:58;17.50;;;11.30;;
23384;SDS011;11865;45.394;10.978;2022-12-18T08:29:45;15.85;;;11.55;;
23384;SDS011;11865;45.394;10.978;2022-12-18T08:32:13;16.08;;;11.50;;
23384;SDS011;11865;45.394;10.978;2022-12-18T08:34:41;17.13;;;11.13;;
23384;SDS011;11865;45.394;10.978;2022-12-18T08:37:08;18.05;;;11.65;;
23384;SDS011;11865;45.394;10.978;2022-12-18T08:39:36;17.05;;;11.40;;
23384;SDS011;11865;45.394;10.978;2022-12-18T08:42:03;17.95;;;11.48;;
23384;SDS011;11865;45.394;10.978;2022-12-18T08:44:49;17.77;;;11.30;;
23384;SDS011;11865;45.394;10.978;2022-12-18T08:47:17;19.73;;;11.52;;
23384;SDS011;11865;45.394;10.978;2022-12-18T08:49:44;16.23;;;11.30;;
23384;SDS011;11865;45.394;10.978;2022-12-18T08:52:12;19.83;;;11.48;;
23384;SDS011;11865;45.394;10.978;2022-12-18T08:54:39;17.02;;;11.63;;
23384;SDS011;11865;45.394;10.978;2022-12-18T08:57:07;16.33;;;11.77;;
23384;SDS011;11865;45.394;10.978;2022-12-18T08:59:35;19.30;;;11.60;;
23384;SDS011;11865;45.394;10.978;2022-12-18T09:02:02;19.25;;;11.73;;
23384;SDS011;11865;45.394;10.978;2022-12-18T09:04:30;20.30;;;12.77;;
23384;SDS011;11865;45.394;10.978;2022-12-18T09:06:57;18.13;;;11.48;;
23384;SDS011;11865;45.394;10.978;2022-12-18T09:09:25;18.13;;;12.88;;
23384;SDS011;11865;45.394;10.978;2022-12-18T09:11:52;17.55;;;11.95;;
23384;SDS011;11865;45.394;10.978;2022-12-18T09:14:20;22.30;;;12.27;;
23384;SDS011;11865;45.394;10.978;2022-12-18T09:16:47;18.30;;;12.27;;
23384;SDS011;11865;45.394;10.978;2022-12-18T09:19:15;15.60;;;11.10;;
23384;SDS011;11865;45.394;10.978;2022-12-18T09:21:42;18.20;;;12.93;;
23384;SDS011;11865;45.394;10.978;2022-12-18T09:24:14;18.58;;;12.32;;
23384;SDS011;11865;45.394;10.978;2022-12-18T09:26:42;19.00;;;12.55;;
23384;SDS011;11865;45.394;10.978;2022-12-18T09:29:14;18.77;;;12.10;;
23384;SDS011;11865;45.394;10.978;2022-12-18T09:31:44;19.25;;;12.82;;
23384;SDS011;11865;45.394;10.978;2022-12-18T09:34:12;18.08;;;12.73;;
23384;SDS011;11865;45.394;10.978;2022-12-18T09:36:40;17.80;;;12.75;;
23384;SDS011;11865;45.394;10.978;2022-12-18T09:39:09;18.08;;;12.38;;
23384;SDS011;11865;45.394;10.978;2022-12-18T09:44:15;16.77;;;11.52;;
23384;SDS011;11865;45.394;10.978;2022-12-18T09:49:22;22.00;;;12.27;;
23384;SDS011;11865;45.394;10.978;2022-12-18T09:54:33;16.00;;;11.70;;
23384;SDS011;11865;45.394;10.978;2022-12-18T09:59:37;17.95;;;13.10;;
23384;SDS011;11865;45.394;10.978;2022-12-18T10:02:15;18.85;;;13.40;;
23384;SDS011;11865;45.394;10.978;2022-12-18T10:04:47;17.38;;;13.02;;
23384;SDS011;11865;45.394;10.978;2022-12-18T10:07:26;18.48;;;12.20;;
23384;SDS011;11865;45.394;10.978;2022-12-18T10:21:19;15.20;;;11.40;;
23384;SDS011;11865;45.394;10.978;2022-12-18T10:26:28;16.38;;;11.70;;
23384;SDS011;11865;45.394;10.978;2022-12-18T10:28:57;17.70;;;11.57;;
23384;SDS011;11865;45.394;10.978;2022-12-18T10:31:31;18.23;;;12.60;;
23384;SDS011;11865;45.394;10.978;2022-12-18T10:33:59;17.88;;;11.07;;
23384;SDS011;11865;45.394;10.978;2022-12-18T10:36:26;14.90;;;10.65;;
23384;SDS011;11865;45.394;10.978;2022-12-18T10:38:53;15.43;;;11.25;;
23384;SDS011;11865;45.394;10.978;2022-12-18T10:41:48;16.20;;;11.45;;
23384;SDS011;11865;45.394;10.978;2022-12-18T10:44:23;15.15;;;11.15;;
23384;SDS011;11865;45.394;10.978;2022-12-18T10:46:53;16.42;;;10.80;;
23384;SDS011;11865;45.394;10.978;2022-12-18T10:49:34;17.10;;;11.13;;
23384;SDS011;11865;45.394;10.978;2022-12-18T10:59:58;18.75;;;11.57;;
23384;SDS011;11865;45.394;10.978;2022-12-18T11:02:37;15.93;;;10.00;;
23384;SDS011;11865;45.394;10.978;2022-12-18T11:08:00;14.18;;;10.77;;
23384;SDS011;11865;45.394;10.978;2022-12-18T11:10:28;14.98;;;9.98;;
23384;SDS011;11865;45.394;10.978;2022-12-18T11:13:11;15.07;;;10.45;;
23384;SDS011;11865;45.394;10.978;2022-12-18T11:15:43;12.80;;;10.27;;
23384;SDS011;11865;45.394;10.978;2022-12-18T11:21:06;13.40;;;9.90;;
23384;SDS011;11865;45.394;10.978;2022-12-18T11:23:36;16.73;;;11.02;;
23384;SDS011;11865;45.394;10.978;2022-12-18T11:26:11;15.15;;;10.40;;
23384;SDS011;11865;45.394;10.978;2022-12-18T11:28:44;15.63;;;10.23;;
23384;SDS011;11865;45.394;10.978;2022-12-18T11:31:28;15.07;;;10.32;;
23384;SDS011;11865;45.394;10.978;2022-12-18T11:36:55;14.95;;;11.00;;
23384;SDS011;11865;45.394;10.978;2022-12-18T11:39:42;14.25;;;11.45;;
23384;SDS011;11865;45.394;10.978;2022-12-18T11:43:20;14.75;;;10.90;;
23384;SDS011;11865;45.394;10.978;2022-12-18T11:47:52;17.13;;;10.73;;
23384;SDS011;11865;45.394;10.978;2022-12-18T11:53:04;15.57;;;11.13;;
23384;SDS011;11865;45.394;10.978;2022-12-18T11:55:44;23.75;;;11.95;;
23384;SDS011;11865;45.394;10.978;2022-12-18T11:58:37;16.60;;;11.25;;
23384;SDS011;11865;45.394;10.978;2022-12-18T12:15:47;19.60;;;11.93;;
23384;SDS011;11865;45.394;10.978;2022-12-18T12:21:41;21.83;;;13.27;;
23384;SDS011;11865;45.394;10.978;2022-12-18T12:26:44;16.65;;;11.98;;
23384;SDS011;11865;45.394;10.978;2022-12-18T12:29:38;19.65;;;12.02;;
23384;SDS011;11865;45.394;10.978;2022-12-18T12:37:43;19.70;;;13.55;;
23384;SDS011;11865;45.394;10.978;2022-12-18T12:40:22;19.20;;;13.13;;
23384;SDS011;11865;45.394;10.978;2022-12-18T12:45:58;20.33;;;12.70;;
23384;SDS011;11865;45.394;10.978;2022-12-18T12:51:20;20.55;;;13.63;;
23384;SDS011;11865;45.394;10.978;2022-12-18T12:53:49;19.75;;;13.05;;
23384;SDS011;11865;45.394;10.978;2022-12-18T12:56:19;20.50;;;13.50;;
23384;SDS011;11865;45.394;10.978;2022-12-18T13:02:11;20.02;;;13.68;;
23384;SDS011;11865;45.394;10.978;2022-12-18T13:04:44;18.25;;;12.93;;
23384;SDS011;11865;45.394;10.978;2022-12-18T13:07:36;17.88;;;12.98;;
23384;SDS011;11865;45.394;10.978;2022-12-18T13:10:22;19.03;;;12.97;;
23384;SDS011;11865;45.394;10.978;2022-12-18T13:12:57;20.00;;;12.02;;
23384;SDS011;11865;45.394;10.978;2022-12-18T13:15:32;19.67;;;12.52;;
23384;SDS011;11865;45.394;10.978;2022-12-18T13:20:43;18.50;;;11.70;;
23384;SDS011;11865;45.394;10.978;2022-12-18T13:23:26;16.48;;;11.48;;
23384;SDS011;11865;45.394;10.978;2022-12-18T13:25:57;17.30;;;11.07;;
23384;SDS011;11865;45.394;10.978;2022-12-18T13:31:15;16.10;;;10.93;;
23384;SDS011;11865;45.394;10.978;2022-12-18T13:39:58;16.52;;;10.38;;
23384;SDS011;11865;45.394;10.978;2022-12-18T13:42:35;16.05;;;10.25;;
23384;SDS011;11865;45.394;10.978;2022-12-18T13:45:35;13.00;;;9.10;;
23384;SDS011;11865;45.394;10.978;2022-12-18T13:48:19;14.32;;;9.77;;
23384;SDS011;11865;45.394;10.978;2022-12-18T13:50:49;14.95;;;10.32;;
23384;SDS011;11865;45.394;10.978;2022-12-18T13:56:17;16.83;;;10.45;;
23384;SDS011;11865;45.394;10.978;2022-12-18T13:59:08;16.02;;;9.75;;
23384;SDS011;11865;45.394;10.978;2022-12-18T14:01:42;14.30;;;9.95;;
23384;SDS011;11865;45.394;10.978;2022-12-18T14:04:21;16.55;;;10.65;;
23384;SDS011;11865;45.394;10.978;2022-12-18T14:06:50;16.02;;;10.80;;
23384;SDS011;11865;45.394;10.978;2022-12-18T14:09:22;21.10;;;10.95;;
23384;SDS011;11865;45.394;10.978;2022-12-18T14:11:56;18.15;;;11.13;;
23384;SDS011;11865;45.394;10.978;2022-12-18T14:14:45;12.55;;;9.32;;
23384;SDS011;11865;45.394;10.978;2022-12-18T14:17:18;15.50;;;10.18;;
23384;SDS011;11865;45.394;10.978;2022-12-18T14:19:48;22.85;;;12.93;;
23384;SDS011;11865;45.394;10.978;2022-12-18T14:22:24;23.95;;;14.05;;
23384;SDS011;11865;45.394;10.978;2022-12-18T14:28:22;24.88;;;14.70;;
23384;SDS011;11865;45.394;10.978;2022-12-18T14:30:30;18.20;;;11.38;;
23384;SDS011;11865;45.394;10.978;2022-12-18T14:35:37;21.17;;;13.02;;
23384;SDS011;11865;45.394;10.978;2022-12-18T14:40:43;19.75;;;12.07;;
23384;SDS011;11865;45.394;10.978;2022-12-18T14:43:11;19.88;;;11.85;;
23384;SDS011;11865;45.394;10.978;2022-12-18T14:45:40;16.90;;;12.10;;
23384;SDS011;11865;45.394;10.978;2022-12-18T14:50:54;21.88;;;13.18;;
23384;SDS011;11865;45.394;10.978;2022-12-18T14:53:33;20.50;;;12.13;;
23384;SDS011;11865;45.394;10.978;2022-12-18T14:58:51;16.98;;;11.25;;
23384;SDS011;11865;45.394;10.978;2022-12-18T15:01:32;15.68;;;11.07;;
23384;SDS011;11865;45.394;10.978;2022-12-18T15:04:02;17.67;;;11.13;;
23384;SDS011;11865;45.394;10.978;2022-12-18T15:06:33;17.38;;;12.50;;
23384;SDS011;11865;45.394;10.978;2022-12-18T15:09:04;16.97;;;11.87;;
23384;SDS011;11865;45.394;10.978;2022-12-18T15:11:48;15.70;;;11.45;;
23384;SDS011;11865;45.394;10.978;2022-12-18T15:14:30;14.40;;;10.85;;
23384;SDS011;11865;45.394;10.978;2022-12-18T15:16:59;14.70;;;10.57;;
23384;SDS011;11865;45.394;10.978;2022-12-18T15:19:38;16.60;;;10.95;;
23384;SDS011;11865;45.394;10.978;2022-12-18T15:22:21;19.25;;;11.52;;
23384;SDS011;11865;45.394;10.978;2022-12-18T15:24:50;17.98;;;12.13;;
23384;SDS011;11865;45.394;10.978;2022-12-18T15:27:34;17.60;;;11.40;;
23384;SDS011;11865;45.394;10.978;2022-12-18T15:32:38;16.15;;;11.45;;
23384;SDS011;11865;45.394;10.978;2022-12-18T15:37:43;18.13;;;11.98;;
23384;SDS011;11865;45.394;10.978;2022-12-18T15:40:12;16.98;;;11.45;;
23384;SDS011;11865;45.394;10.978;2022-12-18T15:42:43;23.77;;;14.82;;
23384;SDS011;11865;45.394;10.978;2022-12-18T15:45:29;21.65;;;15.20;;
23384;SDS011;11865;45.394;10.978;2022-12-18T15:47:57;27.73;;;17.00;;
23384;SDS011;11865;45.394;10.978;2022-12-18T15:50:25;29.65;;;18.98;;
23384;SDS011;11865;45.394;10.978;2022-12-18T15:52:54;34.50;;;21.15;;
23384;SDS011;11865;45.394;10.978;2022-12-18T15:55:23;35.13;;;22.05;;
23384;SDS011;11865;45.394;10.978;2022-12-18T15:58:09;38.35;;;22.90;;
23384;SDS011;11865;45.394;10.978;2022-12-18T16:00:40;40.97;;;24.58;;
23384;SDS011;11865;45.394;10.978;2022-12-18T16:03:08;41.97;;;23.95;;
23384;SDS011;11865;45.394;10.978;2022-12-18T16:05:36;39.65;;;23.13;;
23384;SDS011;11865;45.394;10.978;2022-12-18T16:08:04;37.05;;;24.35;;
23384;SDS011;11865;45.394;10.978;2022-12-18T16:10:31;41.05;;;24.88;;
23384;SDS011;11865;45.394;10.978;2022-12-18T16:12:59;40.05;;;25.48;;
23384;SDS011;11865;45.394;10.978;2022-12-18T16:15:26;43.20;;;24.80;;
23384;SDS011;11865;45.394;10.978;2022-12-18T16:17:54;46.50;;;25.85;;
23384;SDS011;11865;45.394;10.978;2022-12-18T16:20:21;44.55;;;24.92;;
23384;SDS011;11865;45.394;10.978;2022-12-18T16:22:49;42.97;;;24.60;;
23384;SDS011;11865;45.394;10.978;2022-12-18T16:25:24;41.40;;;24.80;;
23384;SDS011;11865;45.394;10.978;2022-12-18T16:27:54;46.72;;;25.90;;
23384;SDS011;11865;45.394;10.978;2022-12-18T16:30:24;48.85;;;28.02;;
23384;SDS011;11865;45.394;10.978;2022-12-18T16:32:58;48.45;;;26.70;;
23384;SDS011;11865;45.394;10.978;2022-12-18T16:35:26;43.25;;;25.95;;
23384;SDS011;11865;45.394;10.978;2022-12-18T16:37:54;43.88;;;25.45;;
23384;SDS011;11865;45.394;10.978;2022-12-18T16:40:21;45.25;;;24.80;;
23384;SDS011;11865;45.394;10.978;2022-12-18T16:42:49;45.13;;;24.85;;
23384;SDS011;11865;45.394;10.978;2022-12-18T16:45:17;41.88;;;23.95;;
23384;SDS011;11865;45.394;10.978;2022-12-18T16:47:45;43.38;;;24.52;;
23384;SDS011;11865;45.394;10.978;2022-12-18T16:50:12;41.88;;;24.90;;
23384;SDS011;11865;45.394;10.978;2022-12-18T16:52:40;42.58;;;23.50;;
23384;SDS011;11865;45.394;10.978;2022-12-18T16:55:08;44.15;;;24.63;;
23384;SDS011;11865;45.394;10.978;2022-12-18T16:57:36;48.50;;;25.17;;
23384;SDS011;11865;45.394;10.978;2022-12-18T17:00:03;47.03;;;25.25;;
23384;SDS011;11865;45.394;10.978;2022-12-18T17:02:32;46.05;;;26.77;;